Moccasin, CA

2:27 PM PDT on April 19, 2015 (GMT -0700)
Modesto City-County-Sham | | Change Station
CLOSE
Current Station
Airport
Location: Modesto,
Elevation: 95 ft
Nearby Weather Stations

Elev 95 ft 37.62 °N, 120.95 °W | Updated 34 minutes ago

Clear
Clear
81 °F
Feels Like 81 °F
N
7
Wind Variable Wind from West

Today
High -- | Low -- °F
--% Chance of Precip.
Yesterday
High -- | Low -- °F
Precip. -- in
6:20 AM 7:40 PM
New Moon, 2% visible
Pressure 29.86 in
Visibility 10.0 miles
Clouds Clear
Dew Point 44 °F
Humidity 27%
Rainfall 0.00 in
Snow Depth Not available.
UV 10 out of 12
Pollen 9.30 out of 12
Air Quality Not available.
Flu Activity Sporadic
METAR KMOD 192053Z 27006KT 10SM CLR 27/07 A2986 RMK AO2 SLP109 T02720067 58022

More Conditions Fewer Conditions

Pressure 29.86 in
Visibility 10.0 miles
Clouds Clear
Dew Point 44 °F
Humidity 27%
Rainfall 0.00 in
Snow Depth Not available.
UV 10 out of 12
Pollen 9.30 out of 12
Air Quality Not available.
Flu Activity Sporadic
METAR KMOD 192053Z 27006KT 10SM CLR 27/07 A2986 RMK AO2 SLP109 T02720067 58022

More Conditions Fewer Conditions

10-Day Weather Forecast

Almanac

Astronomy

Apr. 19, 2015 Rise Set
Actual Time
Civil Twilight
Nautical Twilight
Astronomical Twilight
Moon
Length of Visible Light
Length of Day
Tomorrow will be .
, % of the Moon is Illuminated

Today's Extremes

State Highs State Lows

Community

WunderPhotos

Upload Photos

1,814,988 photos uploaded!

WunderBlogs® & News

Nearby

Air Quality

  Air Quality AQ Index Pollutant
Not available.

Snow Depth

Station Depth Elevation

Earthquake Activity

City Distance Mag. Time & Date
Minimum magnitude displayed is 2.5.

Coastal Water Temperatures

Place Temperature

Stations

Nearby Weather Stations

Station Location Temp. Windchill Dew Point Humidity Wind Precip. Elev Updated Type